This is the latest recevied weather packets stored in our database for station/object KC5EZZ-2. If no packets are shown the sender has not sent any weather packets the latest 10 day(s).
| Time | Temp. | Humidity | Pressure | Rain* | Wind** | Luminosity | Snow |
|---|---|---|---|---|---|---|---|
| 1777995850 | 25.56° C | - | - | 0 mm | 3.13 m/s, 198° | - | - |
| 1777995550 | 25.56° C | - | - | 0 mm | 4.92 m/s, 163° | - | - |
| 1777995312 | 26.11° C | - | - | 0 mm | 4.02 m/s, 170° | - | - |
| 1777995251 | 26.11° C | - | - | 0 mm | 4.02 m/s, 170° | - | - |
| 1777994948 | 26.11° C | - | - | 0 mm | 4.02 m/s, 198° | - | - |
| 1777994649 | 26.11° C | - | - | 0 mm | 3.13 m/s, 180° | - | - |
| 1777994349 | 26.11° C | - | - | 0 mm | 2.68 m/s, 198° | - | - |
| 1777994047 | 25.56° C | - | - | 0 mm | 3.58 m/s, 195° | - | - |
| 1777993447 | 25° C | - | - | 0 mm | 3.58 m/s, 172° | - | - |
| 1777993189 | 25° C | - | - | 0 mm | 3.58 m/s, 217° | - | - |
| 1777993145 | 25° C | - | - | 0 mm | 3.58 m/s, 217° | - | - |
| 1777992884 | 24.44° C | - | - | 0 mm | 4.02 m/s, 184° | - | - |
| 1777992845 | 24.44° C | - | - | 0 mm | 4.02 m/s, 184° | - | - |
| 1777992545 | 24.44° C | - | - | 0 mm | 3.13 m/s, 218° | - | - |
| 1777991942 | 23.89° C | - | - | 0 mm | 5.36 m/s, 225° | - | - |
| 1777991642 | 23.89° C | - | - | 0 mm | 3.58 m/s, 208° | - | - |
| 1777991371 | 23.33° C | - | - | 0 mm | 4.92 m/s, 203° | - | - |
| 1777991340 | 23.33° C | - | - | 0 mm | 4.92 m/s, 203° | - | - |
| 1777991085 | 23.33° C | - | - | 0 mm | 4.02 m/s, 207° | - | - |
| 1777991041 | 23.33° C | - | - | 0 mm | 4.02 m/s, 207° | - | - |
| 1777990772 | 22.78° C | - | - | 0 mm | 4.47 m/s, 191° | - | - |
| 1777990741 | 22.78° C | - | - | 0 mm | 4.47 m/s, 191° | - | - |
| 1777990470 | 22.78° C | - | - | 0 mm | 2.68 m/s, 191° | - | - |
| 1777990439 | 22.78° C | - | - | 0 mm | 2.68 m/s, 191° | - | - |
| 1777989838 | 22.78° C | - | - | 0 mm | 4.47 m/s, 193° | - | - |
* Rain latest hour (hover to see other rain measurements)
** Current wind speed in m/s (hover to see current wind gust speed)